Eastlake, CO (80614)

09:43 AM MDT del 18 Settembre 2014 (GMT -0600)
Cherrywood Park | Change Station
CLOSE
Current Station
Stazione meteo personale
Location: Thornton, CO
Altitudine: 5300 ft
Stazioni meteo nelle vicinanze

Alt. 5300 ft 39.95 °N, 104.94 °W | Updated 3 seconds ago

Sereno
Sereno
68.9 °F
Sembra 68.9 °F
N
0.0
Vento Variabile Vento da SO
Gusts 4.7 mph

Oggi
Massima -- | Minima -- °F
--% Possibilità di precip.
Ieri
Massima -- | Minima -- °F
Precip. -- in
6:43 AM 7:03 PM
Luna calante, 26% visible
Pressione 30.05 in
Visibilità 10.0 miglia
Nuvole Sereno
Punto di rugiada 40 °F
Umidità 36%
Piovosità -999.00 in
Spessore del manto nevoso 0 in , 0 in , 0 in
Raggi UV 3 fuori da 12
Polline 7.70 fuori da 12
Ozono Buono
PM2.5 Buono
Flu Activity Non disponibile.
METAR KEIK 181535Z AUTO 00000KT 10SM CLR 23/04 A3005 RMK AO2 T02270038

More Conditions Fewer Conditions

Pressione 30.05 in
Visibilità 10.0 miglia
Nuvole Sereno
Punto di rugiada 40 °F
Umidità 36%
Piovosità -999.00 in
Spessore del manto nevoso 0 in , 0 in , 0 in
Raggi UV 3 fuori da 12
Polline 7.70 fuori da 12
Ozono Buono
PM2.5 Buono
Flu Activity Non disponibile.
METAR KEIK 181535Z AUTO 00000KT 10SM CLR 23/04 A3005 RMK AO2 T02270038

More Conditions Fewer Conditions

10-Day Weather Forecast

Almanac

Astronomia

Sep. 18, 2014 Alba Tramonto
Ora attuale 06:43 MDT 19:03 MDT
Crepuscolo civile 06:16 MDT 19:30 MDT
Crepuscolo nautico 05:44 MDT 20:02 MDT
Crepuscolo astronomico 05:12 MDT 20:34 MDT
Luna 01:38 MDT 15:56 MDT
Estensione della luce visibile 13h 13m
Lunghezza del giorno
12h 19m
Tomorrow will be 2m 36s shorter.
Luna calante, 26% of the Moon is Illuminated
Oggi
Luna calante
Set 24
Nuovo
Ott 1
Primo quarto
Ott 8
Luna piena
Ott 15
Ultimo quarto

Gli estremi di oggi

State Highs State Lows

Community

WunderPhotos

Upload Photos

1,754,388 foto caricate!

Nearby

Qualità dell'aria

  Qualità dell'aria Indice AQ Inquinante
Ieri Buono
OZONE
Ieri Buono
PM10
Attuale Buono
PM2.5
Attuale Buono
OZONE
Giovedì Buono
OZONE
Giovedì Buono
PM2.5

Profondità neve

Stazione Profondità Altitudine
Schofield Pass 0 in 10700 ft
Willow Park 0 in 10700 ft
Zirkel 0 in 9340 ft
Cochetopa Pass 0 in 10020 ft
Molas Lake 0 in 10500 ft

Attività sismica

Città  Distanza Mag. Data & Ora
Non sono state riportate attività sismiche nelle vicinanze.
Minimo Magnitudo Mostrato è 2.5.

Temperature delle acque costiere

Località Temperatura
Nessun dato dalle stazioni

Stazioni meteo nelle vicinanze